TYF weather

Torsby Airport
Värmlanda län, Sweden

Public forecast

Using degrees Celsius for public forecast. Weather courtesy of forecast.io.

Current aviation weather report (METAR) for Torsby Airport

Retrieved 2020/08/04 01:20 UTC (19 minutes ago):

ESST 040120Z AUTO 00000KT 9999 NCD 06/05 Q1009

Closest aviation forecast (TAF) to Torsby Airport

Forecast is more than 12 hours old.

Closest forecast is Karlstad Airport, 44.1 nm (81.6 km) SSE. Retrieved 2017/05/22 06:33 UTC (3 years ago):

TAF ESOK 220530Z 2206/2224 28006KT CAVOK